Time;durP1;ratioP1;P1;durP2;ratioP2;P2;SDS_P1;SDS_P2;PMS_P1;PMS_P2;Temp;Humidity;BMP_temperature;BMP_pressure;BME280_temperature;BME280_humidity;BME280_pressure;Samples;Min_cycle;Max_cycle;Signal;HPM_P1;HPM_P2
2023/06/14 00:02:20;;;;;;;5.72;4.35;;;36.00;27.20;;;;;;5082413;28;20425;-63
2023/06/14 00:04:48;;;;;;;7.88;3.30;;;36.00;27.20;;;;;;5080235;28;20116;-62
2023/06/14 00:07:16;;;;;;;6.28;2.40;;;36.00;27.90;;;;;;5080855;28;20041;-63
2023/06/14 00:09:43;;;;;;;11.98;4.47;;;36.00;27.60;;;;;;5081820;28;20053;-60
2023/06/14 00:12:09;;;;;;;10.13;3.92;;;35.90;28.10;;;;;;5080619;28;20134;-61
2023/06/14 00:14:36;;;;;;;7.72;4.22;;;35.90;28.50;;;;;;5081732;28;20125;-61
2023/06/14 00:17:02;;;;;;;7.55;4.20;;;35.80;29.00;;;;;;5083034;28;20043;-61
2023/06/14 00:19:30;;;;;;;7.45;4.53;;;35.80;29.00;;;;;;5081465;28;20525;-62
2023/06/14 00:21:57;;;;;;;6.80;2.10;;;35.80;29.00;;;;;;5077764;28;20092;-62
2023/06/14 00:24:23;;;;;;;12.25;3.53;;;35.80;28.90;;;;;;5078103;28;20162;-61
2023/06/14 00:26:50;;;;;;;15.57;3.83;;;35.80;28.60;;;;;;5074283;28;20037;-60
2023/06/14 00:29:16;;;;;;;10.23;4.88;;;35.70;28.50;;;;;;5084464;28;20131;-62
2023/06/14 00:31:43;;;;;;;6.25;2.83;;;35.60;28.60;;;;;;5079234;28;20043;-63
2023/06/14 00:34:09;;;;;;;10.43;4.00;;;35.50;28.60;;;;;;5084056;28;20035;-60
2023/06/14 00:36:35;;;;;;;8.05;4.43;;;35.50;29.20;;;;;;5085453;28;20039;-61
2023/06/14 00:39:03;;;;;;;11.38;3.50;;;35.50;29.40;;;;;;5080508;28;20094;-62
2023/06/14 00:41:30;;;;;;;6.85;3.08;;;35.50;30.20;;;;;;5078941;28;20054;-61
2023/06/14 00:43:56;;;;;;;6.78;4.78;;;35.50;29.80;;;;;;5074799;28;20056;-62
2023/06/14 00:46:23;;;;;;;10.40;8.23;;;35.50;29.90;;;;;;5082948;28;20400;-61
2023/06/14 00:48:49;;;;;;;5.97;3.10;;;35.50;29.80;;;;;;5075619;28;20039;-60
2023/06/14 00:51:16;;;;;;;9.10;3.63;;;35.50;29.80;;;;;;5080047;28;20036;-63
2023/06/14 00:53:46;;;;;;;6.57;3.72;;;35.50;29.90;;;;;;5077250;28;20034;-62
2023/06/14 00:56:14;;;;;;;13.55;4.85;;;35.50;30.00;;;;;;5081299;28;20072;-63
2023/06/14 00:58:42;;;;;;;8.20;3.15;;;35.40;29.90;;;;;;5079098;28;20098;-62
2023/06/14 01:01:09;;;;;;;12.25;4.80;;;35.20;30.00;;;;;;5076402;28;20080;-61
2023/06/14 01:03:35;;;;;;;14.80;12.65;;;35.20;30.00;;;;;;5075481;28;20184;-60
2023/06/14 01:06:26;;;;;;;13.75;10.68;;;35.20;30.30;;;;;;5078111;28;20055;-63
2023/06/14 01:09:31;;;;;;;12.63;5.53;;;35.20;30.80;;;;;;5082778;28;20053;-61
2023/06/14 01:12:36;;;;;;;7.18;4.20;;;35.10;30.40;;;;;;5076205;28;20525;-60
2023/06/14 01:15:04;;;;;;;22.23;4.55;;;35.10;30.60;;;;;;5081757;28;20095;-61
2023/06/14 01:17:32;;;;;;;13.88;5.60;;;35.00;31.00;;;;;;5079865;28;20049;-61
2023/06/14 01:20:17;;;;;;;5.53;4.55;;;35.00;30.30;;;;;;5077549;28;20050;-62
2023/06/14 01:22:54;;;;;;;5.72;3.85;;;34.90;30.60;;;;;;5076796;28;20545;-61
2023/06/14 01:25:22;;;;;;;9.65;4.28;;;34.90;30.10;;;;;;5079484;28;20096;-62
2023/06/14 01:27:52;;;;;;;10.02;5.72;;;34.90;30.90;;;;;;5075713;28;20138;-62
2023/06/14 01:30:22;;;;;;;5.55;4.03;;;34.90;30.20;;;;;;5074503;28;20045;-61
2023/06/14 01:32:50;;;;;;;8.57;4.00;;;34.80;29.30;;;;;;5073664;28;20091;-61
2023/06/14 01:35:16;;;;;;;15.75;5.32;;;34.70;29.20;;;;;;5073899;28;20033;-63
2023/06/14 01:37:44;;;;;;;7.78;4.05;;;34.70;30.20;;;;;;5072025;28;20043;-62
2023/06/14 01:40:12;;;;;;;10.23;7.68;;;34.60;30.90;;;;;;5077622;28;20161;-61
2023/06/14 01:42:39;;;;;;;14.55;9.88;;;34.50;31.10;;;;;;5075672;28;20541;-64
2023/06/14 01:45:07;;;;;;;7.90;4.90;;;34.50;31.40;;;;;;5080306;28;20089;-61
2023/06/14 01:47:35;;;;;;;9.75;7.10;;;34.30;31.40;;;;;;5079053;28;20065;-64
2023/06/14 01:50:03;;;;;;;10.55;4.43;;;34.30;31.70;;;;;;5082516;28;20517;-61
2023/06/14 01:52:29;;;;;;;13.60;4.82;;;34.20;31.60;;;;;;5079321;28;20048;-64
2023/06/14 01:54:57;;;;;;;8.45;4.57;;;34.10;31.20;;;;;;5082563;28;20131;-63
2023/06/14 01:57:26;;;;;;;6.38;3.08;;;34.10;31.40;;;;;;5077255;28;20068;-64
2023/06/14 01:59:53;;;;;;;5.30;2.97;;;34.10;31.80;;;;;;5083427;28;20444;-64
2023/06/14 02:02:19;;;;;;;7.63;3.03;;;34.00;31.00;;;;;;5077759;28;20057;-62
2023/06/14 02:04:47;;;;;;;5.30;2.25;;;33.90;31.40;;;;;;5079661;28;20099;-62
2023/06/14 02:07:14;;;;;;;10.30;4.28;;;33.90;32.50;;;;;;5081407;28;20041;-62
2023/06/14 02:09:43;;;;;;;10.15;4.50;;;33.80;32.00;;;;;;5078489;28;20063;-62
2023/06/14 02:12:10;;;;;;;10.85;3.45;;;33.70;32.50;;;;;;5078152;28;20052;-64
2023/06/14 02:14:38;;;;;;;10.82;4.80;;;33.60;31.10;;;;;;5078357;28;20060;-62
2023/06/14 02:17:06;;;;;;;12.25;5.93;;;33.50;31.20;;;;;;5077837;28;20058;-58
2023/06/14 02:19:33;;;;;;;12.32;4.60;;;33.40;31.40;;;;;;5078175;28;20053;-62
2023/06/14 02:21:59;;;;;;;16.20;8.63;;;33.40;31.40;;;;;;5077048;28;20064;-64
2023/06/14 02:24:25;;;;;;;21.85;10.48;;;33.20;31.60;;;;;;5084962;28;20057;-63
2023/06/14 02:26:52;;;;;;;20.95;13.68;;;33.20;31.90;;;;;;5072106;28;20077;-66
2023/06/14 02:29:18;;;;;;;12.27;4.70;;;33.10;31.90;;;;;;5077391;28;20401;-63
2023/06/14 02:31:46;;;;;;;7.50;3.30;;;33.00;31.90;;;;;;5080767;28;20051;-66
2023/06/14 02:34:13;;;;;;;13.30;4.45;;;33.00;31.90;;;;;;5081448;28;20049;-64
2023/06/14 02:36:41;;;;;;;5.47;3.35;;;32.90;31.20;;;;;;5085948;28;20148;-62
2023/06/14 02:39:11;;;;;;;10.68;4.15;;;32.90;31.80;;;;;;5075893;28;20052;-61
2023/06/14 02:41:38;;;;;;;9.35;4.57;;;32.80;32.00;;;;;;5078954;28;20111;-62
2023/06/14 02:44:06;;;;;;;10.15;4.55;;;32.70;31.90;;;;;;5080008;28;20051;-62
2023/06/14 02:46:32;;;;;;;8.65;4.18;;;32.60;31.20;;;;;;5081181;28;20524;-62
2023/06/14 02:48:59;;;;;;;9.25;5.07;;;32.50;31.80;;;;;;5079899;28;20071;-62
2023/06/14 02:51:25;;;;;;;10.60;5.22;;;32.40;32.60;;;;;;5080165;28;20424;-65
2023/06/14 02:53:52;;;;;;;10.15;5.20;;;32.40;32.50;;;;;;5075048;28;20059;-60
2023/06/14 02:56:19;;;;;;;8.75;4.03;;;32.40;32.20;;;;;;5076392;28;20079;-61
2023/06/14 02:58:46;;;;;;;8.20;3.10;;;32.30;31.90;;;;;;5077016;28;20076;-63
2023/06/14 03:01:12;;;;;;;12.05;2.63;;;32.20;31.90;;;;;;5075920;28;20054;-60
2023/06/14 03:03:39;;;;;;;11.30;5.68;;;32.10;32.20;;;;;;5083456;28;20095;-61
2023/06/14 03:06:05;;;;;;;19.38;8.05;;;32.00;32.30;;;;;;5081460;28;20070;-62
2023/06/14 03:08:38;;;;;;;11.85;3.65;;;32.00;33.10;;;;;;5084711;28;20513;-63
2023/06/14 03:11:08;;;;;;;16.05;6.07;;;31.90;33.40;;;;;;5082231;28;20051;-62
2023/06/14 03:13:38;;;;;;;43.83;11.93;;;31.80;33.60;;;;;;5078293;28;20059;-63
2023/06/14 03:16:05;;;;;;;18.92;4.80;;;31.70;33.30;;;;;;5076448;28;20080;-60
2023/06/14 03:18:35;;;;;;;24.30;6.72;;;31.70;33.30;;;;;;5080516;28;20079;-61
2023/06/14 03:21:04;;;;;;;14.93;5.40;;;31.80;32.70;;;;;;5083333;28;20227;-61
2023/06/14 03:23:31;;;;;;;15.73;7.47;;;31.80;32.50;;;;;;5076830;28;20064;-65
2023/06/14 03:25:57;;;;;;;8.25;5.43;;;31.90;33.90;;;;;;5081793;28;20061;-62
2023/06/14 03:28:25;;;;;;;12.75;6.68;;;31.80;34.60;;;;;;5080448;28;20134;-63
2023/06/14 03:30:52;;;;;;;14.75;7.25;;;31.80;35.30;;;;;;5080390;28;20045;-62
2023/06/14 03:33:19;;;;;;;15.40;5.32;;;31.70;35.50;;;;;;5081195;28;20083;-61
2023/06/14 03:35:45;;;;;;;16.17;5.57;;;31.70;35.20;;;;;;5081620;28;20544;-61
2023/06/14 03:38:11;;;;;;;20.80;7.53;;;31.80;35.80;;;;;;5086856;28;20065;-62
2023/06/14 03:40:38;;;;;;;16.17;3.78;;;31.70;36.20;;;;;;5087637;28;20080;-61
2023/06/14 03:43:04;;;;;;;20.23;8.90;;;31.60;36.40;;;;;;5081376;28;20080;-61
2023/06/14 03:45:31;;;;;;;22.05;6.75;;;31.60;37.00;;;;;;5080433;28;20060;-60
2023/06/14 03:47:58;;;;;;;20.08;9.48;;;31.50;36.90;;;;;;5078932;28;20101;-61
2023/06/14 03:50:24;;;;;;;16.27;7.47;;;31.50;36.20;;;;;;5083496;28;20081;-59
2023/06/14 03:52:50;;;;;;;22.38;8.48;;;31.50;36.60;;;;;;5079642;28;20107;-63
2023/06/14 03:55:17;;;;;;;23.88;8.32;;;31.40;36.50;;;;;;5079978;28;20062;-61
2023/06/14 03:57:43;;;;;;;21.95;8.38;;;31.30;37.20;;;;;;5085572;28;20445;-60
2023/06/14 04:00:11;;;;;;;21.40;8.73;;;31.30;37.50;;;;;;5083493;28;20070;-60
2023/06/14 04:02:38;;;;;;;24.92;8.57;;;31.20;38.10;;;;;;5079530;28;20570;-63
2023/06/14 04:05:08;;;;;;;24.60;6.50;;;31.10;38.00;;;;;;5080310;28;20086;-63
2023/06/14 04:07:39;;;;;;;36.03;8.20;;;31.10;37.90;;;;;;5085096;28;20099;-60
2023/06/14 04:10:09;;;;;;;28.40;8.10;;;31.00;37.80;;;;;;5084509;28;20059;-60
2023/06/14 04:12:35;;;;;;;30.48;8.63;;;31.00;38.60;;;;;;5082218;28;20070;-61
2023/06/14 04:15:02;;;;;;;19.45;8.70;;;31.00;39.10;;;;;;5075833;28;20063;-60
2023/06/14 04:17:29;;;;;;;21.08;9.70;;;30.90;39.70;;;;;;5081595;28;20113;-62
2023/06/14 04:19:58;;;;;;;22.65;11.43;;;30.90;40.80;;;;;;5080910;28;20053;-60
2023/06/14 04:22:27;;;;;;;23.15;6.40;;;30.80;40.20;;;;;;5078242;28;20080;-64
2023/06/14 04:24:59;;;;;;;21.42;8.77;;;30.70;40.10;;;;;;5077887;28;20065;-59
2023/06/14 04:27:27;;;;;;;26.48;9.20;;;30.70;39.80;;;;;;5083359;28;20418;-61
2023/06/14 04:29:59;;;;;;;24.17;8.55;;;30.60;39.40;;;;;;5087759;28;20057;-60
2023/06/14 04:32:26;;;;;;;28.58;10.43;;;30.60;39.40;;;;;;5077049;28;20067;-59
2023/06/14 04:34:59;;;;;;;23.85;10.80;;;30.60;39.80;;;;;;5078146;28;20064;-60
2023/06/14 04:37:30;;;;;;;24.60;8.73;;;30.60;40.10;;;;;;5076103;28;20173;-61
2023/06/14 04:39:57;;;;;;;15.65;8.63;;;30.60;40.20;;;;;;5074241;28;20483;-59
2023/06/14 04:42:30;;;;;;;18.10;8.85;;;30.50;40.40;;;;;;5077552;28;20086;-60
2023/06/14 04:44:57;;;;;;;16.00;10.32;;;30.40;40.20;;;;;;5077871;28;20063;-59
2023/06/14 04:47:29;;;;;;;17.20;11.57;;;30.40;40.80;;;;;;5077336;28;20148;-58
2023/06/14 04:49:56;;;;;;;17.75;7.10;;;30.40;41.10;;;;;;5076064;28;20095;-58
2023/06/14 04:52:26;;;;;;;26.52;12.40;;;30.30;41.10;;;;;;5075672;28;20063;-61
2023/06/14 04:54:54;;;;;;;22.35;8.00;;;30.30;41.90;;;;;;5076547;28;20071;-61
2023/06/14 04:57:22;;;;;;;25.67;13.27;;;30.20;41.60;;;;;;5075117;28;20109;-61
2023/06/14 04:59:54;;;;;;;19.40;10.35;;;30.10;42.00;;;;;;5072927;28;20071;-61
2023/06/14 05:02:25;;;;;;;21.63;9.93;;;30.00;42.40;;;;;;5074968;28;20082;-60
2023/06/14 05:04:52;;;;;;;17.85;8.85;;;29.90;41.90;;;;;;5075149;28;20148;-62
2023/06/14 05:07:18;;;;;;;21.35;9.65;;;29.90;42.00;;;;;;5081026;28;20494;-62
2023/06/14 05:09:45;;;;;;;26.63;14.75;;;29.80;42.60;;;;;;5075988;28;20532;-62
2023/06/14 05:12:12;;;;;;;22.85;12.95;;;29.80;42.40;;;;;;5076624;28;20083;-60
2023/06/14 05:14:39;;;;;;;26.38;8.18;;;29.70;42.20;;;;;;5074671;28;20066;-61
2023/06/14 05:17:06;;;;;;;20.92;8.52;;;29.60;41.80;;;;;;5074124;28;20067;-60
2023/06/14 05:19:32;;;;;;;14.57;8.90;;;29.60;40.90;;;;;;5074465;28;20597;-61
2023/06/14 05:21:58;;;;;;;25.92;17.13;;;29.50;39.50;;;;;;5075060;28;20118;-61
2023/06/14 05:24:25;;;;;;;14.45;7.25;;;29.40;40.10;;;;;;5074227;28;20438;-61
2023/06/14 05:26:51;;;;;;;13.88;6.95;;;29.40;38.50;;;;;;5076691;28;20611;-61
2023/06/14 05:29:18;;;;;;;12.70;6.60;;;29.30;38.20;;;;;;5080253;28;20070;-59
2023/06/14 05:31:44;;;;;;;14.15;12.02;;;29.30;38.10;;;;;;5078010;28;20095;-62
2023/06/14 05:34:11;;;;;;;13.30;8.75;;;29.30;38.60;;;;;;5077074;28;20099;-64
2023/06/14 05:36:38;;;;;;;8.15;6.40;;;29.30;38.30;;;;;;5075003;28;20423;-61
2023/06/14 05:39:05;;;;;;;11.40;6.18;;;29.20;38.00;;;;;;5070589;28;20435;-61
2023/06/14 05:41:32;;;;;;;13.35;7.80;;;29.20;37.70;;;;;;5073100;28;20086;-62
2023/06/14 05:44:00;;;;;;;7.68;5.72;;;29.20;37.60;;;;;;5074427;28;20456;-60
2023/06/14 05:46:26;;;;;;;8.88;5.53;;;29.20;37.60;;;;;;5074289;28;20069;-62
2023/06/14 05:48:54;;;;;;;9.70;8.70;;;29.10;37.90;;;;;;5076155;28;20464;-61
2023/06/14 05:51:21;;;;;;;12.80;7.63;;;29.00;38.20;;;;;;5075009;28;20156;-60
2023/06/14 05:53:48;;;;;;;14.05;7.60;;;29.00;37.90;;;;;;5073370;28;20079;-61
2023/06/14 05:56:15;;;;;;;8.38;6.25;;;29.00;38.70;;;;;;5072028;28;20065;-61
2023/06/14 05:58:42;;;;;;;16.20;13.40;;;29.00;38.10;;;;;;5071461;28;20178;-60
2023/06/14 06:01:08;;;;;;;33.47;26.60;;;28.90;38.50;;;;;;5079948;28;20068;-62
2023/06/14 06:03:37;;;;;;;28.35;23.95;;;28.90;39.00;;;;;;5075230;28;20080;-62
2023/06/14 06:06:03;;;;;;;16.58;12.35;;;28.80;39.80;;;;;;5070705;28;20582;-62
2023/06/14 06:08:31;;;;;;;15.13;10.27;;;28.80;40.10;;;;;;5074795;28;20442;-65
2023/06/14 06:10:58;;;;;;;10.95;9.85;;;28.70;40.40;;;;;;5078170;28;20069;-64
2023/06/14 06:13:24;;;;;;;9.93;8.52;;;28.70;40.80;;;;;;5077251;28;20085;-62
2023/06/14 06:15:50;;;;;;;11.73;9.10;;;28.70;41.10;;;;;;5075645;28;20074;-64
2023/06/14 06:18:17;;;;;;;12.98;8.25;;;28.60;41.70;;;;;;5076538;28;20114;-61
2023/06/14 06:20:43;;;;;;;14.73;8.88;;;28.50;42.20;;;;;;5081799;28;20070;-60
2023/06/14 06:23:10;;;;;;;11.55;6.97;;;28.50;43.30;;;;;;5077658;28;20088;-63
2023/06/14 06:25:37;;;;;;;8.25;6.57;;;28.40;44.00;;;;;;5079545;28;20081;-63
2023/06/14 06:28:03;;;;;;;12.02;10.75;;;28.40;43.90;;;;;;5077684;28;20546;-64
2023/06/14 06:30:30;;;;;;;11.93;10.82;;;28.40;44.30;;;;;;5077280;28;20095;-64
2023/06/14 06:32:56;;;;;;;13.85;6.60;;;28.30;44.10;;;;;;5078310;28;20070;-63
2023/06/14 06:35:22;;;;;;;10.75;9.43;;;28.30;43.70;;;;;;5081022;28;20136;-62
2023/06/14 06:37:49;;;;;;;15.57;11.27;;;28.20;44.10;;;;;;5076137;28;20109;-62
2023/06/14 06:40:15;;;;;;;10.63;9.48;;;28.10;43.70;;;;;;5078754;28;20093;-63
2023/06/14 06:42:42;;;;;;;11.63;8.32;;;28.10;43.40;;;;;;5077410;28;20095;-61
2023/06/14 06:45:08;;;;;;;11.70;9.65;;;28.00;43.40;;;;;;5079980;28;20098;-63
2023/06/14 06:47:35;;;;;;;10.50;9.48;;;28.00;42.60;;;;;;5077169;28;20075;-63
2023/06/14 06:50:01;;;;;;;9.15;8.18;;;28.00;42.10;;;;;;5076756;28;20077;-64
2023/06/14 06:52:29;;;;;;;11.13;7.28;;;28.00;41.70;;;;;;5078059;28;20101;-65
2023/06/14 06:54:55;;;;;;;9.68;6.65;;;28.00;40.50;;;;;;5079502;28;20080;-65
2023/06/14 06:57:22;;;;;;;8.02;7.13;;;28.00;40.10;;;;;;5085377;28;20160;-64
2023/06/14 06:59:49;;;;;;;5.40;4.65;;;28.10;39.40;;;;;;5081332;28;20161;-64
2023/06/14 07:02:16;;;;;;;6.43;4.43;;;28.00;39.10;;;;;;5079422;28;20079;-66
2023/06/14 07:04:43;;;;;;;10.32;5.18;;;28.10;38.50;;;;;;5082353;28;20159;-62
2023/06/14 07:07:09;;;;;;;20.33;13.48;;;28.10;38.10;;;;;;5078835;28;20120;-63
2023/06/14 07:09:36;;;;;;;20.70;16.05;;;28.10;37.40;;;;;;5077162;28;20156;-64
2023/06/14 07:12:02;;;;;;;23.02;14.35;;;28.10;36.80;;;;;;5078658;28;20204;-64
2023/06/14 07:14:30;;;;;;;21.55;12.80;;;28.20;36.60;;;;;;5082450;28;20073;-63
2023/06/14 07:16:56;;;;;;;23.38;16.85;;;28.20;36.20;;;;;;5078612;28;20072;-64
2023/06/14 07:19:22;;;;;;;12.07;6.60;;;28.30;35.50;;;;;;5076234;28;20072;-62
2023/06/14 07:21:49;;;;;;;10.27;7.20;;;28.30;35.50;;;;;;5076213;28;20092;-65
2023/06/14 07:24:15;;;;;;;9.20;8.15;;;28.20;35.40;;;;;;5076368;28;20086;-64
2023/06/14 07:26:42;;;;;;;4.72;2.90;;;28.30;35.10;;;;;;5079454;28;20082;-61
2023/06/14 07:29:08;;;;;;;8.07;5.47;;;28.30;35.40;;;;;;5076431;28;20086;-62
2023/06/14 07:31:34;;;;;;;7.03;4.32;;;28.30;35.20;;;;;;5083538;28;20140;-63
2023/06/14 07:34:01;;;;;;;7.20;6.57;;;28.30;34.50;;;;;;5080971;28;20094;-64
2023/06/14 07:36:27;;;;;;;8.05;4.50;;;28.30;34.80;;;;;;5083635;28;20137;-63
2023/06/14 07:38:54;;;;;;;8.35;5.25;;;28.30;35.00;;;;;;5082816;28;20118;-64
2023/06/14 07:41:20;;;;;;;10.52;4.10;;;28.30;34.90;;;;;;5081720;28;20075;-63
2023/06/14 07:43:47;;;;;;;7.03;6.32;;;28.20;34.70;;;;;;5083386;28;20076;-64
2023/06/14 07:46:14;;;;;;;19.25;12.32;;;28.20;35.10;;;;;;5085076;28;20063;-64
2023/06/14 07:48:41;;;;;;;8.77;4.60;;;28.20;35.10;;;;;;5088617;28;20098;-64
2023/06/14 07:51:07;;;;;;;8.38;7.32;;;28.20;35.30;;;;;;5083729;28;20147;-62
2023/06/14 07:53:33;;;;;;;9.85;6.03;;;28.10;35.40;;;;;;5085764;28;20556;-63
2023/06/14 07:56:00;;;;;;;8.50;5.38;;;28.10;36.00;;;;;;5082183;28;20068;-64
2023/06/14 07:58:26;;;;;;;7.68;5.15;;;28.00;36.20;;;;;;5084755;28;20111;-62
2023/06/14 08:00:53;;;;;;;18.00;8.30;;;27.90;36.50;;;;;;5080849;28;20078;-63
2023/06/14 08:03:19;;;;;;;8.18;6.10;;;27.90;36.90;;;;;;5082897;28;20093;-61
2023/06/14 08:05:46;;;;;;;12.50;11.27;;;27.80;37.00;;;;;;5080378;28;20101;-62
2023/06/14 08:08:12;;;;;;;9.35;7.07;;;27.80;37.20;;;;;;5080575;28;20077;-63
2023/06/14 08:10:39;;;;;;;9.88;8.82;;;27.80;37.70;;;;;;5080743;28;20547;-64
2023/06/14 08:13:05;;;;;;;9.52;6.72;;;27.70;37.90;;;;;;5083487;28;20085;-63
2023/06/14 08:15:32;;;;;;;11.02;7.78;;;27.60;37.80;;;;;;5081231;28;20496;-64
2023/06/14 08:18:00;;;;;;;7.65;6.70;;;27.50;37.80;;;;;;5077473;28;20088;-63
2023/06/14 08:20:26;;;;;;;12.82;8.40;;;27.50;38.10;;;;;;5078881;28;20553;-64
2023/06/14 08:22:56;;;;;;;14.75;6.88;;;27.40;38.40;;;;;;5083802;28;20081;-63
2023/06/14 08:25:23;;;;;;;8.98;8.10;;;27.30;38.40;;;;;;5081156;28;20442;-62
2023/06/14 08:27:50;;;;;;;13.77;8.55;;;27.30;38.30;;;;;;5079080;28;20088;-63
2023/06/14 08:30:17;;;;;;;11.80;6.72;;;27.30;38.70;;;;;;5079140;28;20068;-62
2023/06/14 08:32:44;;;;;;;8.10;7.07;;;27.30;38.70;;;;;;5082027;28;20084;-63
2023/06/14 08:35:12;;;;;;;13.93;11.30;;;27.30;38.80;;;;;;5081005;28;20067;-63
2023/06/14 08:37:41;;;;;;;9.50;7.30;;;27.20;39.10;;;;;;5080552;28;20408;-63
2023/06/14 08:40:21;;;;;;;10.57;6.80;;;27.20;38.50;;;;;;5078969;28;21297;-62
2023/06/14 08:42:55;;;;;;;15.15;8.18;;;27.20;38.70;;;;;;5080158;28;20089;-62
2023/06/14 08:45:23;;;;;;;9.88;9.00;;;27.10;39.60;;;;;;5085531;28;20155;-63
2023/06/14 08:47:51;;;;;;;12.45;11.27;;;27.10;39.30;;;;;;5081835;28;20469;-62
2023/06/14 08:50:23;;;;;;;11.77;6.03;;;27.00;38.80;;;;;;5078874;28;20220;-62
2023/06/14 08:52:57;;;;;;;11.43;7.20;;;26.90;38.70;;;;;;5078156;28;20598;-62
2023/06/14 08:55:27;;;;;;;9.27;6.80;;;26.80;38.50;;;;;;5083644;28;20151;-63
2023/06/14 08:57:58;;;;;;;11.52;8.77;;;26.80;38.50;;;;;;5080606;28;20088;-62
2023/06/14 09:00:28;;;;;;;21.00;10.38;;;26.80;38.60;;;;;;5082779;28;20099;-62
2023/06/14 09:02:58;;;;;;;7.93;7.18;;;26.70;38.30;;;;;;5082387;28;20163;-62
2023/06/14 09:05:26;;;;;;;9.80;7.43;;;26.60;37.80;;;;;;5084324;28;20193;-63
2023/06/14 09:07:56;;;;;;;12.77;11.55;;;26.60;37.60;;;;;;5076082;28;20156;-61
2023/06/14 09:10:23;;;;;;;10.05;7.57;;;26.60;37.70;;;;;;5081767;28;20159;-62
2023/06/14 09:12:49;;;;;;;14.70;8.00;;;26.60;37.70;;;;;;5080967;28;20082;-62
2023/06/14 09:15:16;;;;;;;8.55;7.00;;;26.60;37.50;;;;;;5076780;28;20113;-62
2023/06/14 09:17:43;;;;;;;9.98;8.52;;;26.60;37.30;;;;;;5077876;28;20067;-62
2023/06/14 09:20:10;;;;;;;15.07;10.88;;;26.60;36.80;;;;;;5078901;28;20496;-63
2023/06/14 09:22:38;;;;;;;17.25;13.02;;;26.60;36.90;;;;;;5078072;28;20088;-61
2023/06/14 09:25:05;;;;;;;11.07;9.20;;;26.50;36.90;;;;;;5081467;28;20125;-63
2023/06/14 09:27:32;;;;;;;12.40;8.15;;;26.60;36.70;;;;;;5080344;28;20071;-62
2023/06/14 09:29:59;;;;;;;8.38;6.10;;;26.50;35.90;;;;;;5078092;28;20064;-62
2023/06/14 09:32:25;;;;;;;11.07;10.07;;;26.60;35.40;;;;;;5078150;28;20067;-62
2023/06/14 09:34:52;;;;;;;11.82;8.27;;;26.50;35.40;;;;;;5081589;28;20075;-62
2023/06/14 09:37:32;;;;;;;11.57;10.40;;;26.50;35.30;;;;;;5082846;28;20166;-62
2023/06/14 09:39:59;;;;;;;14.35;11.88;;;26.50;35.50;;;;;;5078959;28;20082;-63
2023/06/14 09:42:27;;;;;;;11.35;9.23;;;26.50;35.30;;;;;;5078002;28;20083;-64
2023/06/14 09:44:55;;;;;;;15.35;8.80;;;26.50;35.60;;;;;;5081444;28;20072;-63
2023/06/14 09:47:22;;;;;;;10.77;8.90;;;26.50;36.30;;;;;;5083558;28;20155;-61
2023/06/14 09:49:50;;;;;;;12.00;8.55;;;26.50;36.40;;;;;;5077401;28;20070;-61
2023/06/14 09:52:21;;;;;;;16.98;13.77;;;26.40;36.30;;;;;;5083118;28;20420;-62
2023/06/14 09:54:52;;;;;;;12.25;10.93;;;26.40;36.60;;;;;;5084018;28;20094;-63
2023/06/14 09:57:23;;;;;;;13.23;9.93;;;26.30;36.90;;;;;;5078322;28;20458;-63
2023/06/14 10:00:00;;;;;;;9.80;5.80;;;26.30;36.20;;;;;;5081471;28;20185;-62
2023/06/14 10:02:37;;;;;;;16.75;15.27;;;26.20;35.40;;;;;;5082005;28;20168;-62
2023/06/14 10:05:10;;;;;;;16.58;14.85;;;26.20;35.90;;;;;;5080960;28;20102;-62
2023/06/14 10:07:47;;;;;;;16.30;12.88;;;26.10;35.70;;;;;;5080157;28;20066;-64
2023/06/14 10:10:14;;;;;;;16.08;12.60;;;26.10;36.40;;;;;;5078209;28;20516;-65
2023/06/14 10:12:41;;;;;;;9.82;8.23;;;26.10;34.90;;;;;;5081474;28;20079;-65
2023/06/14 10:15:12;;;;;;;9.18;7.18;;;26.10;35.00;;;;;;5077775;28;20124;-64
2023/06/14 10:17:50;;;;;;;16.40;12.32;;;26.00;35.20;;;;;;5074645;28;20137;-66
2023/06/14 10:20:26;;;;;;;20.77;15.82;;;26.00;35.60;;;;;;5080796;28;20634;-65
2023/06/14 10:23:05;;;;;;;13.93;8.32;;;26.00;35.00;;;;;;5081331;28;20094;-63
2023/06/14 10:25:33;;;;;;;9.40;6.45;;;26.00;35.80;;;;;;5081891;28;20547;-67
2023/06/14 10:28:32;;;;;;;11.02;9.27;;;26.00;34.70;;;;;;5082880;28;20111;-65
2023/06/14 10:31:07;;;;;;;18.90;11.25;;;26.00;34.50;;;;;;5100634;28;20589;-66
2023/06/14 10:33:35;;;;;;;15.05;11.82;;;26.00;35.00;;;;;;5101156;28;20135;-64
2023/06/14 10:36:22;;;;;;;23.20;13.00;;;26.00;34.70;;;;;;5102075;28;20106;-64
2023/06/14 10:39:06;;;;;;;14.23;10.65;;;26.00;35.20;;;;;;5105040;28;20564;-65
2023/06/14 10:41:36;;;;;;;17.15;12.77;;;25.90;34.60;;;;;;5099906;28;20094;-64
2023/06/14 10:44:23;;;;;;;23.35;13.48;;;25.90;35.10;;;;;;5100403;28;20075;-68
2023/06/14 10:46:52;;;;;;;15.48;13.20;;;25.80;35.40;;;;;;5060568;28;20590;-64
2023/06/14 10:49:19;;;;;;;12.13;8.73;;;25.90;35.80;;;;;;5104042;28;20089;-66
2023/06/14 10:51:50;;;;;;;13.75;12.27;;;25.80;35.60;;;;;;5101828;28;20074;-64
2023/06/14 10:54:17;;;;;;;13.65;7.53;;;25.80;35.90;;;;;;5101753;28;20079;-66
2023/06/14 10:56:51;;;;;;;10.93;8.55;;;25.80;36.50;;;;;;5098689;28;20087;-65
2023/06/14 10:59:19;;;;;;;19.08;11.85;;;25.70;35.90;;;;;;5101225;28;20143;-64
2023/06/14 11:02:05;;;;;;;11.35;7.85;;;25.70;36.30;;;;;;5100955;28;20091;-64
2023/06/14 11:04:48;;;;;;;17.17;15.02;;;25.60;37.00;;;;;;5102963;28;20121;-65
2023/06/14 11:07:41;;;;;;;11.82;8.98;;;25.50;37.00;;;;;;5082314;28;20163;-67
2023/06/14 11:10:27;;;;;;;17.20;15.02;;;25.50;37.40;;;;;;5078028;28;20068;-65
2023/06/14 11:12:56;;;;;;;14.38;12.23;;;25.40;38.40;;;;;;5080856;28;20071;-64
2023/06/14 11:15:29;;;;;;;17.88;13.77;;;25.20;38.80;;;;;;5080264;28;21440;-64
2023/06/14 11:17:57;;;;;;;19.38;12.02;;;25.20;38.70;;;;;;5084121;28;20079;-64
2023/06/14 11:20:28;;;;;;;20.45;11.88;;;25.10;38.10;;;;;;5085796;28;20084;-63
2023/06/14 11:22:54;;;;;;;19.40;17.33;;;25.10;38.30;;;;;;5080848;28;20092;-64
2023/06/14 11:25:21;;;;;;;21.27;15.73;;;25.00;39.00;;;;;;5082237;28;20103;-65
2023/06/14 11:27:50;;;;;;;18.35;14.90;;;25.00;39.40;;;;;;5083716;28;20064;-63
2023/06/14 11:30:17;;;;;;;14.05;12.55;;;25.00;39.70;;;;;;5080469;28;20067;-66
2023/06/14 11:32:50;;;;;;;26.85;16.08;;;24.90;38.50;;;;;;5083870;28;20091;-64
2023/06/14 11:35:17;;;;;;;24.80;12.13;;;24.90;38.20;;;;;;5085119;28;20124;-64
2023/06/14 11:37:44;;;;;;;17.65;9.35;;;24.90;38.50;;;;;;5082056;28;20095;-66
2023/06/14 11:40:12;;;;;;;21.27;12.20;;;24.80;37.80;;;;;;5079057;28;20067;-65
2023/06/14 11:42:40;;;;;;;20.65;12.98;;;24.80;38.10;;;;;;5081220;28;20171;-66
2023/06/14 11:45:11;;;;;;;20.73;12.30;;;24.80;37.90;;;;;;5080940;28;20150;-65
2023/06/14 11:47:39;;;;;;;21.65;16.20;;;24.80;38.50;;;;;;5083944;28;20071;-65
2023/06/14 11:50:08;;;;;;;20.70;10.32;;;24.80;38.10;;;;;;5081664;28;20116;-65
2023/06/14 11:52:36;;;;;;;39.33;16.25;;;24.70;38.90;;;;;;5083475;28;20080;-65
2023/06/14 11:55:06;;;;;;;39.25;18.88;;;24.70;39.90;;;;;;5082955;28;20561;-65
2023/06/14 11:57:36;;;;;;;49.38;16.83;;;24.70;41.10;;;;;;5083454;28;20091;-67
2023/06/14 12:00:15;;;;;;;55.58;20.60;;;24.70;42.50;;;;;;5081119;28;20075;-64
2023/06/14 12:02:42;;;;;;;55.78;17.27;;;24.60;43.50;;;;;;5082654;28;20087;-65
2023/06/14 12:05:09;;;;;;;64.22;23.08;;;24.60;44.30;;;;;;5086372;28;20099;-63
2023/06/14 12:07:45;;;;;;;65.63;26.42;;;24.50;45.80;;;;;;5081699;28;20524;-66
2023/06/14 12:10:12;;;;;;;54.22;23.90;;;24.50;46.50;;;;;;5085505;28;20067;-64
2023/06/14 12:12:40;;;;;;;53.70;21.38;;;24.40;47.50;;;;;;5081423;28;20623;-63
2023/06/14 12:15:09;;;;;;;53.88;23.75;;;24.30;48.50;;;;;;5083702;28;20071;-64
2023/06/14 12:17:41;;;;;;;48.08;20.95;;;24.40;48.80;;;;;;5079425;28;20107;-65
2023/06/14 12:20:21;;;;;;;67.47;24.38;;;24.30;49.20;;;;;;5085848;28;20075;-63
2023/06/14 12:23:02;;;;;;;66.45;24.90;;;24.30;49.70;;;;;;5080758;28;20564;-64
2023/06/14 12:25:34;;;;;;;52.13;20.73;;;24.20;50.10;;;;;;5081547;28;20461;-64
2023/06/14 12:28:07;;;;;;;68.85;25.63;;;24.10;50.40;;;;;;5086879;28;20151;-64
2023/06/14 12:30:34;;;;;;;67.57;28.33;;;24.10;50.60;;;;;;5077612;28;20080;-63
2023/06/14 12:33:01;;;;;;;55.88;28.80;;;24.00;50.90;;;;;;5079804;28;20099;-65
2023/06/14 12:35:28;;;;;;;60.40;31.20;;;23.90;52.10;;;;;;5082575;28;20078;-63
2023/06/14 12:37:54;;;;;;;44.17;25.27;;;23.90;51.70;;;;;;5079912;28;20076;-65
2023/06/14 12:40:20;;;;;;;67.43;23.98;;;23.80;52.00;;;;;;5081788;28;20072;-64
2023/06/14 12:42:47;;;;;;;44.00;22.77;;;23.70;52.00;;;;;;5087622;28;20084;-67
2023/06/14 12:45:13;;;;;;;53.80;21.92;;;23.80;52.40;;;;;;5084974;28;20565;-64